sensor_id;sensor_type;location;lat;lon;timestamp;temperature;humidity
43673;DHT22;41723;49.326;8.430;2023-03-23T00:00:46;15.30;94.80
43673;DHT22;41723;49.326;8.430;2023-03-23T00:03:12;15.30;94.70
43673;DHT22;41723;49.326;8.430;2023-03-23T00:05:38;15.20;94.70
43673;DHT22;41723;49.326;8.430;2023-03-23T00:08:06;15.30;94.70
43673;DHT22;41723;49.326;8.430;2023-03-23T00:10:36;15.20;94.80
43673;DHT22;41723;49.326;8.430;2023-03-23T00:13:02;15.30;94.80
43673;DHT22;41723;49.326;8.430;2023-03-23T00:15:28;15.20;94.80
43673;DHT22;41723;49.326;8.430;2023-03-23T00:18:01;15.30;94.80
43673;DHT22;41723;49.326;8.430;2023-03-23T00:20:30;15.20;94.80
43673;DHT22;41723;49.326;8.430;2023-03-23T00:23:02;15.20;94.90
43673;DHT22;41723;49.326;8.430;2023-03-23T00:25:29;15.20;94.90
43673;DHT22;41723;49.326;8.430;2023-03-23T00:27:55;15.10;94.90
43673;DHT22;41723;49.326;8.430;2023-03-23T00:30:22;15.20;94.90
43673;DHT22;41723;49.326;8.430;2023-03-23T00:32:47;15.20;95.00
43673;DHT22;41723;49.326;8.430;2023-03-23T00:35:13;15.20;95.00
43673;DHT22;41723;49.326;8.430;2023-03-23T00:37:40;15.10;94.90
43673;DHT22;41723;49.326;8.430;2023-03-23T00:40:05;15.10;94.90
43673;DHT22;41723;49.326;8.430;2023-03-23T00:42:36;15.10;95.00
43673;DHT22;41723;49.326;8.430;2023-03-23T00:45:04;15.10;95.00
43673;DHT22;41723;49.326;8.430;2023-03-23T00:47:38;15.10;95.10
43673;DHT22;41723;49.326;8.430;2023-03-23T00:50:05;15.10;95.20
43673;DHT22;41723;49.326;8.430;2023-03-23T00:52:31;15.10;95.20
43673;DHT22;41723;49.326;8.430;2023-03-23T00:54:57;15.20;95.10
43673;DHT22;41723;49.326;8.430;2023-03-23T00:57:24;15.10;95.10
43673;DHT22;41723;49.326;8.430;2023-03-23T00:59:50;15.00;95.10
43673;DHT22;41723;49.326;8.430;2023-03-23T01:02:16;15.00;95.10
43673;DHT22;41723;49.326;8.430;2023-03-23T01:04:43;15.10;95.20
43673;DHT22;41723;49.326;8.430;2023-03-23T01:07:12;15.00;95.20
43673;DHT22;41723;49.326;8.430;2023-03-23T01:09:38;15.00;95.20
43673;DHT22;41723;49.326;8.430;2023-03-23T01:12:11;15.00;95.20
43673;DHT22;41723;49.326;8.430;2023-03-23T01:14:37;15.00;95.30
43673;DHT22;41723;49.326;8.430;2023-03-23T01:17:03;15.00;95.30
43673;DHT22;41723;49.326;8.430;2023-03-23T01:19:29;15.00;95.40
43673;DHT22;41723;49.326;8.430;2023-03-23T01:21:55;15.00;95.30
43673;DHT22;41723;49.326;8.430;2023-03-23T01:24:20;14.80;95.40
43673;DHT22;41723;49.326;8.430;2023-03-23T01:26:46;14.90;95.70
43673;DHT22;41723;49.326;8.430;2023-03-23T01:29:12;14.90;95.60
43673;DHT22;41723;49.326;8.430;2023-03-23T01:31:39;14.90;95.70
43673;DHT22;41723;49.326;8.430;2023-03-23T01:34:06;14.90;95.60
43673;DHT22;41723;49.326;8.430;2023-03-23T01:36:31;14.90;95.60
43673;DHT22;41723;49.326;8.430;2023-03-23T01:39:02;14.90;95.70
43673;DHT22;41723;49.326;8.430;2023-03-23T01:41:31;14.80;95.80
43673;DHT22;41723;49.326;8.430;2023-03-23T01:46:25;14.80;95.80
43673;DHT22;41723;49.326;8.430;2023-03-23T01:48:51;14.80;95.90
43673;DHT22;41723;49.326;8.430;2023-03-23T01:51:17;14.80;96.10
43673;DHT22;41723;49.326;8.430;2023-03-23T01:53:46;14.80;96.00
43673;DHT22;41723;49.326;8.430;2023-03-23T01:56:13;14.80;95.90
43673;DHT22;41723;49.326;8.430;2023-03-23T01:58:39;14.90;96.10
43673;DHT22;41723;49.326;8.430;2023-03-23T02:01:06;14.90;96.00
43673;DHT22;41723;49.326;8.430;2023-03-23T02:03:33;14.90;96.00
43673;DHT22;41723;49.326;8.430;2023-03-23T02:06:00;14.90;96.00
43673;DHT22;41723;49.326;8.430;2023-03-23T02:08:37;14.90;96.10
43673;DHT22;41723;49.326;8.430;2023-03-23T02:11:14;14.90;96.00
43673;DHT22;41723;49.326;8.430;2023-03-23T02:13:41;14.90;96.00
43673;DHT22;41723;49.326;8.430;2023-03-23T02:18:54;14.90;95.90
43673;DHT22;41723;49.326;8.430;2023-03-23T02:21:45;14.90;96.00
43673;DHT22;41723;49.326;8.430;2023-03-23T02:32:10;14.80;96.10
43673;DHT22;41723;49.326;8.430;2023-03-23T02:34:45;14.90;96.30
43673;DHT22;41723;49.326;8.430;2023-03-23T02:37:27;14.90;96.20
43673;DHT22;41723;49.326;8.430;2023-03-23T02:40:07;14.90;96.50
43673;DHT22;41723;49.326;8.430;2023-03-23T02:42:36;15.00;96.60
43673;DHT22;41723;49.326;8.430;2023-03-23T02:45:06;15.00;96.60
43673;DHT22;41723;49.326;8.430;2023-03-23T02:47:33;14.90;96.60
43673;DHT22;41723;49.326;8.430;2023-03-23T02:50:01;14.90;96.60
43673;DHT22;41723;49.326;8.430;2023-03-23T02:52:27;14.90;97.00
43673;DHT22;41723;49.326;8.430;2023-03-23T02:54:54;14.80;96.70
43673;DHT22;41723;49.326;8.430;2023-03-23T02:57:20;14.90;97.10
43673;DHT22;41723;49.326;8.430;2023-03-23T02:59:47;14.90;97.10
43673;DHT22;41723;49.326;8.430;2023-03-23T03:02:34;14.90;96.80
43673;DHT22;41723;49.326;8.430;2023-03-23T03:05:09;14.80;96.80
43673;DHT22;41723;49.326;8.430;2023-03-23T03:10:07;14.80;97.00
43673;DHT22;41723;49.326;8.430;2023-03-23T03:12:51;14.80;96.90
43673;DHT22;41723;49.326;8.430;2023-03-23T03:17:56;14.70;97.10
43673;DHT22;41723;49.326;8.430;2023-03-23T03:20:24;14.70;97.30
43673;DHT22;41723;49.326;8.430;2023-03-23T03:22:51;14.70;97.50
43673;DHT22;41723;49.326;8.430;2023-03-23T03:25:20;14.70;97.50
43673;DHT22;41723;49.326;8.430;2023-03-23T03:27:47;14.60;97.50
43673;DHT22;41723;49.326;8.430;2023-03-23T03:30:24;14.60;97.60
43673;DHT22;41723;49.326;8.430;2023-03-23T03:32:52;14.70;97.80
43673;DHT22;41723;49.326;8.430;2023-03-23T03:35:23;14.60;97.80
43673;DHT22;41723;49.326;8.430;2023-03-23T03:37:49;14.70;97.70
43673;DHT22;41723;49.326;8.430;2023-03-23T03:40:17;14.70;97.50
43673;DHT22;41723;49.326;8.430;2023-03-23T03:42:44;14.70;97.60
43673;DHT22;41723;49.326;8.430;2023-03-23T03:45:13;14.70;97.60
43673;DHT22;41723;49.326;8.430;2023-03-23T03:47:39;14.70;97.70
43673;DHT22;41723;49.326;8.430;2023-03-23T03:50:05;14.60;97.60
43673;DHT22;41723;49.326;8.430;2023-03-23T03:52:32;14.60;97.70
43673;DHT22;41723;49.326;8.430;2023-03-23T03:54:58;14.60;97.70
43673;DHT22;41723;49.326;8.430;2023-03-23T03:57:24;14.60;97.60
43673;DHT22;41723;49.326;8.430;2023-03-23T04:00:09;14.60;97.50
43673;DHT22;41723;49.326;8.430;2023-03-23T04:02:46;14.60;97.40
43673;DHT22;41723;49.326;8.430;2023-03-23T04:05:34;14.60;97.40
43673;DHT22;41723;49.326;8.430;2023-03-23T04:08:02;14.70;97.30
43673;DHT22;41723;49.326;8.430;2023-03-23T04:10:31;14.70;97.30
43673;DHT22;41723;49.326;8.430;2023-03-23T04:12:58;14.70;97.30
43673;DHT22;41723;49.326;8.430;2023-03-23T04:15:43;14.70;97.20
43673;DHT22;41723;49.326;8.430;2023-03-23T04:18:09;14.70;97.30
43673;DHT22;41723;49.326;8.430;2023-03-23T04:20:35;14.70;97.20
43673;DHT22;41723;49.326;8.430;2023-03-23T04:23:03;14.70;97.30
43673;DHT22;41723;49.326;8.430;2023-03-23T04:25:30;14.70;97.30
43673;DHT22;41723;49.326;8.430;2023-03-23T04:27:58;14.70;97.30
43673;DHT22;41723;49.326;8.430;2023-03-23T04:30:30;14.70;97.40
43673;DHT22;41723;49.326;8.430;2023-03-23T04:33:03;14.70;97.40
43673;DHT22;41723;49.326;8.430;2023-03-23T04:35:29;14.70;97.40
43673;DHT22;41723;49.326;8.430;2023-03-23T04:38:09;14.70;97.50
43673;DHT22;41723;49.326;8.430;2023-03-23T04:40:36;14.70;97.50
43673;DHT22;41723;49.326;8.430;2023-03-23T04:43:12;14.70;97.50
43673;DHT22;41723;49.326;8.430;2023-03-23T04:45:53;14.70;97.80
43673;DHT22;41723;49.326;8.430;2023-03-23T04:48:28;14.70;98.10
43673;DHT22;41723;49.326;8.430;2023-03-23T04:51:06;14.60;98.00
43673;DHT22;41723;49.326;8.430;2023-03-23T04:53:32;14.60;98.60
43673;DHT22;41723;49.326;8.430;2023-03-23T04:55:59;14.60;98.70
43673;DHT22;41723;49.326;8.430;2023-03-23T04:58:29;14.60;99.10
43673;DHT22;41723;49.326;8.430;2023-03-23T05:01:17;14.60;98.90
43673;DHT22;41723;49.326;8.430;2023-03-23T05:03:53;14.60;98.90
43673;DHT22;41723;49.326;8.430;2023-03-23T05:06:19;14.60;98.80
43673;DHT22;41723;49.326;8.430;2023-03-23T05:08:45;14.60;99.10
43673;DHT22;41723;49.326;8.430;2023-03-23T05:11:11;14.60;99.20
43673;DHT22;41723;49.326;8.430;2023-03-23T05:13:40;14.60;99.20
43673;DHT22;41723;49.326;8.430;2023-03-23T05:16:07;14.50;98.70
43673;DHT22;41723;49.326;8.430;2023-03-23T05:18:35;14.50;99.10
43673;DHT22;41723;49.326;8.430;2023-03-23T05:21:05;14.50;99.20
43673;DHT22;41723;49.326;8.430;2023-03-23T05:23:35;14.50;99.40
43673;DHT22;41723;49.326;8.430;2023-03-23T05:26:09;14.50;99.60
43673;DHT22;41723;49.326;8.430;2023-03-23T05:28:35;14.50;99.50
43673;DHT22;41723;49.326;8.430;2023-03-23T05:31:22;14.50;99.50
43673;DHT22;41723;49.326;8.430;2023-03-23T05:33:48;14.40;99.30
43673;DHT22;41723;49.326;8.430;2023-03-23T05:36:19;14.40;99.50
43673;DHT22;41723;49.326;8.430;2023-03-23T05:39:04;14.40;99.30
43673;DHT22;41723;49.326;8.430;2023-03-23T05:41:48;14.50;99.30
43673;DHT22;41723;49.326;8.430;2023-03-23T05:44:15;14.40;99.40
43673;DHT22;41723;49.326;8.430;2023-03-23T05:46:45;14.50;99.20
43673;DHT22;41723;49.326;8.430;2023-03-23T05:49:12;14.40;99.30
43673;DHT22;41723;49.326;8.430;2023-03-23T05:51:40;14.40;99.10
43673;DHT22;41723;49.326;8.430;2023-03-23T05:54:06;14.50;99.10
43673;DHT22;41723;49.326;8.430;2023-03-23T05:56:33;14.50;99.00
43673;DHT22;41723;49.326;8.430;2023-03-23T05:59:12;14.50;98.80
43673;DHT22;41723;49.326;8.430;2023-03-23T06:01:40;14.50;98.70
43673;DHT22;41723;49.326;8.430;2023-03-23T06:04:06;14.50;98.50
43673;DHT22;41723;49.326;8.430;2023-03-23T06:06:42;14.50;98.60
43673;DHT22;41723;49.326;8.430;2023-03-23T06:09:09;14.50;98.30
43673;DHT22;41723;49.326;8.430;2023-03-23T06:12:04;14.60;98.40
43673;DHT22;41723;49.326;8.430;2023-03-23T06:14:37;14.60;98.20
43673;DHT22;41723;49.326;8.430;2023-03-23T06:17:03;14.60;98.30
43673;DHT22;41723;49.326;8.430;2023-03-23T06:19:29;14.60;98.30
43673;DHT22;41723;49.326;8.430;2023-03-23T06:22:15;14.70;98.30
43673;DHT22;41723;49.326;8.430;2023-03-23T06:25:02;14.70;98.30
43673;DHT22;41723;49.326;8.430;2023-03-23T06:27:35;14.70;98.40
43673;DHT22;41723;49.326;8.430;2023-03-23T06:30:03;14.70;98.50
43673;DHT22;41723;49.326;8.430;2023-03-23T06:32:29;14.70;98.60
43673;DHT22;41723;49.326;8.430;2023-03-23T06:34:55;14.70;98.50
43673;DHT22;41723;49.326;8.430;2023-03-23T06:37:58;14.70;98.70
43673;DHT22;41723;49.326;8.430;2023-03-23T06:40:59;14.80;98.70
43673;DHT22;41723;49.326;8.430;2023-03-23T06:43:26;14.80;98.80
43673;DHT22;41723;49.326;8.430;2023-03-23T06:46:07;14.70;98.70
43673;DHT22;41723;49.326;8.430;2023-03-23T06:48:39;14.80;98.80
43673;DHT22;41723;49.326;8.430;2023-03-23T06:51:06;14.70;98.70
43673;DHT22;41723;49.326;8.430;2023-03-23T06:53:33;14.80;98.60
43673;DHT22;41723;49.326;8.430;2023-03-23T06:55:59;14.70;98.80
43673;DHT22;41723;49.326;8.430;2023-03-23T06:58:26;14.70;98.80
43673;DHT22;41723;49.326;8.430;2023-03-23T07:00:55;14.70;98.90
43673;DHT22;41723;49.326;8.430;2023-03-23T07:03:23;14.60;98.90
43673;DHT22;41723;49.326;8.430;2023-03-23T07:05:48;14.60;99.00
43673;DHT22;41723;49.326;8.430;2023-03-23T07:08:16;14.60;99.00
43673;DHT22;41723;49.326;8.430;2023-03-23T07:10:52;14.60;99.10
43673;DHT22;41723;49.326;8.430;2023-03-23T07:13:20;14.60;99.20
43673;DHT22;41723;49.326;8.430;2023-03-23T07:15:50;14.60;99.10
43673;DHT22;41723;49.326;8.430;2023-03-23T07:18:17;14.60;99.40
43673;DHT22;41723;49.326;8.430;2023-03-23T07:20:49;14.60;99.40
43673;DHT22;41723;49.326;8.430;2023-03-23T07:23:16;14.60;99.40
43673;DHT22;41723;49.326;8.430;2023-03-23T07:25:52;14.70;99.50
43673;DHT22;41723;49.326;8.430;2023-03-23T07:28:22;14.60;99.50
43673;DHT22;41723;49.326;8.430;2023-03-23T07:30:49;14.70;99.70
43673;DHT22;41723;49.326;8.430;2023-03-23T07:33:15;14.60;99.80
43673;DHT22;41723;49.326;8.430;2023-03-23T07:35:41;14.60;99.90
43673;DHT22;41723;49.326;8.430;2023-03-23T07:38:09;14.50;99.90
43673;DHT22;41723;49.326;8.430;2023-03-23T07:40:35;14.40;99.90
43673;DHT22;41723;49.326;8.430;2023-03-23T07:43:10;14.40;99.90
43673;DHT22;41723;49.326;8.430;2023-03-23T07:45:59;14.50;99.90
43673;DHT22;41723;49.326;8.430;2023-03-23T07:48:34;14.50;99.90
43673;DHT22;41723;49.326;8.430;2023-03-23T07:51:00;14.40;99.90
43673;DHT22;41723;49.326;8.430;2023-03-23T07:53:28;14.40;99.90
43673;DHT22;41723;49.326;8.430;2023-03-23T07:56:04;14.30;99.90
43673;DHT22;41723;49.326;8.430;2023-03-23T07:58:55;14.30;99.90
43673;DHT22;41723;49.326;8.430;2023-03-23T08:01:21;14.30;99.90
43673;DHT22;41723;49.326;8.430;2023-03-23T08:04:08;14.30;99.90
43673;DHT22;41723;49.326;8.430;2023-03-23T08:06:54;14.30;99.90
43673;DHT22;41723;49.326;8.430;2023-03-23T08:09:33;14.40;99.90
43673;DHT22;41723;49.326;8.430;2023-03-23T08:12:28;14.40;99.90
43673;DHT22;41723;49.326;8.430;2023-03-23T08:15:16;14.50;99.90
43673;DHT22;41723;49.326;8.430;2023-03-23T08:17:54;14.40;99.90
43673;DHT22;41723;49.326;8.430;2023-03-23T08:20:48;14.50;99.90
43673;DHT22;41723;49.326;8.430;2023-03-23T08:23:31;14.40;99.90
43673;DHT22;41723;49.326;8.430;2023-03-23T08:26:18;14.40;99.90
43673;DHT22;41723;49.326;8.430;2023-03-23T08:29:04;14.40;99.90
43673;DHT22;41723;49.326;8.430;2023-03-23T08:32:04;14.30;99.90
43673;DHT22;41723;49.326;8.430;2023-03-23T08:35:02;14.30;99.90
43673;DHT22;41723;49.326;8.430;2023-03-23T08:38:07;14.30;99.90
43673;DHT22;41723;49.326;8.430;2023-03-23T08:40:51;14.40;99.90
43673;DHT22;41723;49.326;8.430;2023-03-23T08:43:34;14.40;99.90
43673;DHT22;41723;49.326;8.430;2023-03-23T08:46:21;14.30;99.90
43673;DHT22;41723;49.326;8.430;2023-03-23T08:49:12;14.50;99.90
43673;DHT22;41723;49.326;8.430;2023-03-23T08:51:47;14.50;99.90
43673;DHT22;41723;49.326;8.430;2023-03-23T08:54:36;14.50;99.90
43673;DHT22;41723;49.326;8.430;2023-03-23T08:57:26;14.60;99.90
43673;DHT22;41723;49.326;8.430;2023-03-23T09:00:11;14.60;99.90
43673;DHT22;41723;49.326;8.430;2023-03-23T09:03:15;14.50;99.90
43673;DHT22;41723;49.326;8.430;2023-03-23T09:06:15;14.60;99.90
43673;DHT22;41723;49.326;8.430;2023-03-23T09:08:44;14.60;99.90
43673;DHT22;41723;49.326;8.430;2023-03-23T09:11:10;14.60;99.90
43673;DHT22;41723;49.326;8.430;2023-03-23T09:13:37;14.60;99.90
43673;DHT22;41723;49.326;8.430;2023-03-23T09:16:04;14.70;99.90
43673;DHT22;41723;49.326;8.430;2023-03-23T09:18:29;14.90;99.90
43673;DHT22;41723;49.326;8.430;2023-03-23T09:20:59;14.90;99.90
43673;DHT22;41723;49.326;8.430;2023-03-23T09:23:26;14.90;99.90
43673;DHT22;41723;49.326;8.430;2023-03-23T09:25:52;14.80;99.90
43673;DHT22;41723;49.326;8.430;2023-03-23T09:28:18;14.90;99.90
43673;DHT22;41723;49.326;8.430;2023-03-23T09:30:44;15.00;99.90
43673;DHT22;41723;49.326;8.430;2023-03-23T09:33:11;15.10;99.90
43673;DHT22;41723;49.326;8.430;2023-03-23T09:35:37;15.00;99.90
43673;DHT22;41723;49.326;8.430;2023-03-23T09:38:04;15.00;99.90
43673;DHT22;41723;49.326;8.430;2023-03-23T09:43:28;15.20;99.90
43673;DHT22;41723;49.326;8.430;2023-03-23T09:48:26;15.10;99.90
43673;DHT22;41723;49.326;8.430;2023-03-23T09:50:57;15.10;99.90
43673;DHT22;41723;49.326;8.430;2023-03-23T09:53:26;15.20;99.90
43673;DHT22;41723;49.326;8.430;2023-03-23T09:55:53;15.30;99.90
43673;DHT22;41723;49.326;8.430;2023-03-23T09:58:31;15.30;99.90
43673;DHT22;41723;49.326;8.430;2023-03-23T10:01:00;15.50;99.90
43673;DHT22;41723;49.326;8.430;2023-03-23T10:03:30;15.30;99.90
43673;DHT22;41723;49.326;8.430;2023-03-23T10:05:57;15.40;99.90
43673;DHT22;41723;49.326;8.430;2023-03-23T10:08:24;15.40;99.90
43673;DHT22;41723;49.326;8.430;2023-03-23T10:16:03;15.30;99.90
43673;DHT22;41723;49.326;8.430;2023-03-23T10:18:36;15.20;99.90
43673;DHT22;41723;49.326;8.430;2023-03-23T10:21:01;15.20;99.90
43673;DHT22;41723;49.326;8.430;2023-03-23T10:28:59;15.10;99.90
43673;DHT22;41723;49.326;8.430;2023-03-23T10:31:28;15.10;99.90
43673;DHT22;41723;49.326;8.430;2023-03-23T10:33:56;15.00;99.90
43673;DHT22;41723;49.326;8.430;2023-03-23T10:36:30;15.00;99.90
43673;DHT22;41723;49.326;8.430;2023-03-23T10:41:33;15.10;99.90
43673;DHT22;41723;49.326;8.430;2023-03-23T10:43:58;15.00;99.90
43673;DHT22;41723;49.326;8.430;2023-03-23T10:48:53;14.90;99.90
43673;DHT22;41723;49.326;8.430;2023-03-23T10:51:21;14.80;99.90
43673;DHT22;41723;49.326;8.430;2023-03-23T10:53:51;14.80;99.90
43673;DHT22;41723;49.326;8.430;2023-03-23T10:56:28;14.70;99.90
43673;DHT22;41723;49.326;8.430;2023-03-23T10:58:54;14.70;99.90
43673;DHT22;41723;49.326;8.430;2023-03-23T11:01:30;14.60;99.90
43673;DHT22;41723;49.326;8.430;2023-03-23T11:03:56;14.60;99.90
43673;DHT22;41723;49.326;8.430;2023-03-23T11:06:25;14.70;99.90
43673;DHT22;41723;49.326;8.430;2023-03-23T11:11:31;14.70;99.90
43673;DHT22;41723;49.326;8.430;2023-03-23T11:13:58;14.70;99.90
43673;DHT22;41723;49.326;8.430;2023-03-23T11:16:25;14.80;99.90
43673;DHT22;41723;49.326;8.430;2023-03-23T11:18:51;14.90;99.90
43673;DHT22;41723;49.326;8.430;2023-03-23T11:21:19;14.90;99.90
43673;DHT22;41723;49.326;8.430;2023-03-23T11:23:50;15.00;99.90
43673;DHT22;41723;49.326;8.430;2023-03-23T11:26:17;15.00;99.90
43673;DHT22;41723;49.326;8.430;2023-03-23T11:31:13;15.10;99.90
43673;DHT22;41723;49.326;8.430;2023-03-23T11:36:20;15.20;99.90
43673;DHT22;41723;49.326;8.430;2023-03-23T11:38:52;15.20;99.90
43673;DHT22;41723;49.326;8.430;2023-03-23T11:41:21;15.20;99.90
43673;DHT22;41723;49.326;8.430;2023-03-23T11:43:47;15.30;99.90
43673;DHT22;41723;49.326;8.430;2023-03-23T11:46:29;15.30;99.90
43673;DHT22;41723;49.326;8.430;2023-03-23T11:49:02;15.30;99.90
43673;DHT22;41723;49.326;8.430;2023-03-23T11:51:31;15.20;99.90
43673;DHT22;41723;49.326;8.430;2023-03-23T11:54:11;15.20;99.90
43673;DHT22;41723;49.326;8.430;2023-03-23T11:56:39;15.10;99.90
43673;DHT22;41723;49.326;8.430;2023-03-23T11:59:10;15.20;99.90
43673;DHT22;41723;49.326;8.430;2023-03-23T12:02:00;15.10;99.90
43673;DHT22;41723;49.326;8.430;2023-03-23T12:04:39;15.10;99.90
43673;DHT22;41723;49.326;8.430;2023-03-23T12:07:12;15.20;99.90
43673;DHT22;41723;49.326;8.430;2023-03-23T12:12:13;15.10;99.90
43673;DHT22;41723;49.326;8.430;2023-03-23T12:20:12;15.20;99.90
43673;DHT22;41723;49.326;8.430;2023-03-23T12:25:55;15.20;99.90
43673;DHT22;41723;49.326;8.430;2023-03-23T12:30:32;15.10;99.90
43673;DHT22;41723;49.326;8.430;2023-03-23T12:33:15;15.10;99.90
43673;DHT22;41723;49.326;8.430;2023-03-23T12:38:15;15.10;99.90
43673;DHT22;41723;49.326;8.430;2023-03-23T12:46:15;15.10;99.90
43673;DHT22;41723;49.326;8.430;2023-03-23T12:49:06;15.10;99.90
43673;DHT22;41723;49.326;8.430;2023-03-23T12:51:35;15.10;99.90
43673;DHT22;41723;49.326;8.430;2023-03-23T12:54:14;15.10;99.90
43673;DHT22;41723;49.326;8.430;2023-03-23T13:00:02;15.20;99.90
43673;DHT22;41723;49.326;8.430;2023-03-23T13:04:47;15.20;99.90
43673;DHT22;41723;49.326;8.430;2023-03-23T13:07:18;15.20;99.90
43673;DHT22;41723;49.326;8.430;2023-03-23T13:10:02;15.20;99.90
43673;DHT22;41723;49.326;8.430;2023-03-23T13:12:29;15.30;99.90
43673;DHT22;41723;49.326;8.430;2023-03-23T13:20:15;15.40;99.90
43673;DHT22;41723;49.326;8.430;2023-03-23T13:27:57;15.30;99.90
43673;DHT22;41723;49.326;8.430;2023-03-23T13:30:24;15.30;99.90
43673;DHT22;41723;49.326;8.430;2023-03-23T13:32:50;15.30;99.90
43673;DHT22;41723;49.326;8.430;2023-03-23T13:35:17;15.20;99.90
43673;DHT22;41723;49.326;8.430;2023-03-23T13:37:47;15.20;99.90
43673;DHT22;41723;49.326;8.430;2023-03-23T13:40:16;15.10;99.90
43673;DHT22;41723;49.326;8.430;2023-03-23T13:42:49;15.10;99.90
43673;DHT22;41723;49.326;8.430;2023-03-23T13:47:44;15.10;99.90
43673;DHT22;41723;49.326;8.430;2023-03-23T13:52:53;15.10;99.90
43673;DHT22;41723;49.326;8.430;2023-03-23T13:55:30;15.10;99.90
43673;DHT22;41723;49.326;8.430;2023-03-23T14:05:34;14.90;99.90
43673;DHT22;41723;49.326;8.430;2023-03-23T14:08:02;14.90;99.90
43673;DHT22;41723;49.326;8.430;2023-03-23T14:10:34;15.00;99.90
43673;DHT22;41723;49.326;8.430;2023-03-23T14:13:00;15.00;99.90
43673;DHT22;41723;49.326;8.430;2023-03-23T14:15:28;15.00;99.90
43673;DHT22;41723;49.326;8.430;2023-03-23T14:17:54;15.00;99.90
43673;DHT22;41723;49.326;8.430;2023-03-23T14:20:26;15.00;99.90
43673;DHT22;41723;49.326;8.430;2023-03-23T14:22:55;15.00;99.90
43673;DHT22;41723;49.326;8.430;2023-03-23T14:25:22;15.00;99.90
43673;DHT22;41723;49.326;8.430;2023-03-23T14:27:50;15.00;99.90
43673;DHT22;41723;49.326;8.430;2023-03-23T14:30:18;15.10;99.90
43673;DHT22;41723;49.326;8.430;2023-03-23T14:32:43;15.10;99.90
43673;DHT22;41723;49.326;8.430;2023-03-23T14:35:16;15.10;99.90
43673;DHT22;41723;49.326;8.430;2023-03-23T14:37:42;15.10;99.90
43673;DHT22;41723;49.326;8.430;2023-03-23T14:40:11;15.10;99.90
43673;DHT22;41723;49.326;8.430;2023-03-23T14:42:38;15.20;99.90
43673;DHT22;41723;49.326;8.430;2023-03-23T14:45:04;15.20;99.90
43673;DHT22;41723;49.326;8.430;2023-03-23T14:49:57;15.20;99.90
43673;DHT22;41723;49.326;8.430;2023-03-23T14:52:27;15.10;99.90
43673;DHT22;41723;49.326;8.430;2023-03-23T14:54:54;15.10;99.90
43673;DHT22;41723;49.326;8.430;2023-03-23T14:57:26;15.10;99.90
43673;DHT22;41723;49.326;8.430;2023-03-23T14:59:52;15.20;99.90
43673;DHT22;41723;49.326;8.430;2023-03-23T15:02:29;15.20;99.90
43673;DHT22;41723;49.326;8.430;2023-03-23T15:04:57;15.30;99.90
43673;DHT22;41723;49.326;8.430;2023-03-23T15:07:24;15.30;99.90
43673;DHT22;41723;49.326;8.430;2023-03-23T15:09:51;15.30;99.90
43673;DHT22;41723;49.326;8.430;2023-03-23T15:12:21;15.30;99.90
43673;DHT22;41723;49.326;8.430;2023-03-23T15:14:49;15.30;99.90
43673;DHT22;41723;49.326;8.430;2023-03-23T15:17:20;15.30;99.90
43673;DHT22;41723;49.326;8.430;2023-03-23T15:19:46;15.40;99.90
43673;DHT22;41723;49.326;8.430;2023-03-23T15:22:21;15.40;99.90
43673;DHT22;41723;49.326;8.430;2023-03-23T15:24:46;15.40;99.90
43673;DHT22;41723;49.326;8.430;2023-03-23T15:27:22;15.40;99.90
43673;DHT22;41723;49.326;8.430;2023-03-23T15:29:52;15.40;99.90
43673;DHT22;41723;49.326;8.430;2023-03-23T15:32:23;15.40;99.90
43673;DHT22;41723;49.326;8.430;2023-03-23T15:34:49;15.40;99.90
43673;DHT22;41723;49.326;8.430;2023-03-23T15:37:19;15.40;99.90
43673;DHT22;41723;49.326;8.430;2023-03-23T15:39:45;15.40;99.90
43673;DHT22;41723;49.326;8.430;2023-03-23T15:42:21;15.40;99.90
43673;DHT22;41723;49.326;8.430;2023-03-23T15:44:54;15.40;99.90
43673;DHT22;41723;49.326;8.430;2023-03-23T15:47:20;15.40;99.90
43673;DHT22;41723;49.326;8.430;2023-03-23T15:49:47;15.40;99.90
43673;DHT22;41723;49.326;8.430;2023-03-23T15:52:24;15.40;99.90
43673;DHT22;41723;49.326;8.430;2023-03-23T15:54:50;15.40;99.90
43673;DHT22;41723;49.326;8.430;2023-03-23T15:57:16;15.50;99.90
43673;DHT22;41723;49.326;8.430;2023-03-23T15:59:41;15.50;99.90
43673;DHT22;41723;49.326;8.430;2023-03-23T16:02:10;15.50;99.90
43673;DHT22;41723;49.326;8.430;2023-03-23T16:04:39;15.60;99.90
43673;DHT22;41723;49.326;8.430;2023-03-23T16:07:07;15.60;99.90
43673;DHT22;41723;49.326;8.430;2023-03-23T16:09:33;15.70;99.90
43673;DHT22;41723;49.326;8.430;2023-03-23T16:11:58;15.70;99.90
43673;DHT22;41723;49.326;8.430;2023-03-23T16:14:25;15.70;99.90
43673;DHT22;41723;49.326;8.430;2023-03-23T16:16:50;15.70;99.90
43673;DHT22;41723;49.326;8.430;2023-03-23T16:19:17;15.70;99.90
43673;DHT22;41723;49.326;8.430;2023-03-23T16:21:44;15.70;99.90
43673;DHT22;41723;49.326;8.430;2023-03-23T16:24:10;15.70;99.90
43673;DHT22;41723;49.326;8.430;2023-03-23T16:26:36;15.70;99.90
43673;DHT22;41723;49.326;8.430;2023-03-23T16:29:04;15.70;99.90
43673;DHT22;41723;49.326;8.430;2023-03-23T16:31:34;15.70;99.90
43673;DHT22;41723;49.326;8.430;2023-03-23T16:34:00;15.70;99.90
43673;DHT22;41723;49.326;8.430;2023-03-23T16:36:26;15.70;99.90
43673;DHT22;41723;49.326;8.430;2023-03-23T16:38:51;15.80;99.90
43673;DHT22;41723;49.326;8.430;2023-03-23T16:41:17;15.80;99.90
43673;DHT22;41723;49.326;8.430;2023-03-23T16:43:42;15.70;99.90
43673;DHT22;41723;49.326;8.430;2023-03-23T16:46:08;15.70;99.90
43673;DHT22;41723;49.326;8.430;2023-03-23T16:48:36;15.70;99.90
43673;DHT22;41723;49.326;8.430;2023-03-23T16:51:02;15.70;99.90
43673;DHT22;41723;49.326;8.430;2023-03-23T16:53:27;15.70;99.90
43673;DHT22;41723;49.326;8.430;2023-03-23T16:55:53;15.70;99.90
43673;DHT22;41723;49.326;8.430;2023-03-23T16:58:19;15.70;99.90
43673;DHT22;41723;49.326;8.430;2023-03-23T17:00:46;15.70;99.90
43673;DHT22;41723;49.326;8.430;2023-03-23T17:03:12;15.70;99.90
43673;DHT22;41723;49.326;8.430;2023-03-23T17:05:37;15.70;99.90
43673;DHT22;41723;49.326;8.430;2023-03-23T17:08:03;15.70;99.90
43673;DHT22;41723;49.326;8.430;2023-03-23T17:10:29;15.70;99.90
43673;DHT22;41723;49.326;8.430;2023-03-23T17:12:55;15.70;99.90
43673;DHT22;41723;49.326;8.430;2023-03-23T17:15:21;15.70;99.90
43673;DHT22;41723;49.326;8.430;2023-03-23T17:17:48;15.60;99.90
43673;DHT22;41723;49.326;8.430;2023-03-23T17:20:14;15.60;99.90
43673;DHT22;41723;49.326;8.430;2023-03-23T17:22:40;15.60;99.90
43673;DHT22;41723;49.326;8.430;2023-03-23T17:25:06;15.60;99.90
43673;DHT22;41723;49.326;8.430;2023-03-23T17:27:32;15.60;99.90
43673;DHT22;41723;49.326;8.430;2023-03-23T17:29:58;15.60;99.90
43673;DHT22;41723;49.326;8.430;2023-03-23T17:32:23;15.50;99.90